Shubert, Nebraska
Current Conditions -  °F | °C
As of 9:53 PM on Saturday 25 Oct 2014 (Local Time) from KFNB Reporting Station
Clear Clear  
Wind Chill: 60°   Ceiling: Unl
Heat Index: 60°   Visibility: 10mi
Dew Point: 47°   Wind: 5mph
Humidity: 62%   Direction: 90°E
Pressure: 30"   Gusts: NA
Location:  40.24°N, 95.68°W
Report Text: KFNB 260253Z AUTO 09004KT 10SM CLR 16/08 A3000 RMK AO2 SLP155 T01560083 58002
Loading
Personal Weather Stations






























Interactive Weather Map
Tropical Storm Tracking
New forecast layout! Learn more

10-Day Weather Forecast

Advertisements
Track Severe Weather on mobile